Heavener, Oklahoma
Current Conditions -  °F | °C
As of 5:15 PM on Tuesday 25 Nov 2014 (Local Time) from KRKR Reporting Station
Haze Haze  
Wind Chill: 49°   Ceiling: Unl
Heat Index: 49°   Visibility: 4mi
Dew Point: 21°   Wind: 3mph
Humidity: 34%   Direction: 20°NNE
Pressure: 30.16"   Gusts: NA
Location:  34.89°N, 94.6°W
Report Text: KRKR 252315Z AUTO 02003KT 4SM HZ CLR 10/M06 A3016 RMK AO2 T00951059
Loading
Personal Weather Stations






























Interactive Weather Map New forecast layout! Learn more

10-Day Weather Forecast

Advertisements
Track Severe Weather on mobile